Arden, Delaware
Current Conditions -  °F | °C
As of 11:51 AM on Friday 28 Nov 2014 (Local Time) from KILG Reporting Station
Clear Clear  
Wind Chill: 29°   Ceiling: Unl
Heat Index: 39°   Visibility: 10mi
Dew Point: 19°   Wind: 21mph
Humidity: 45%   Direction: 320°NW
Pressure: 30.26"   Gusts: 26mph
Location:  39.81°N, 75.49°W
Report Text: KILG 281551Z 32018G23KT 10SM CLR 04/M07 A3026 RMK AO2 SLP247 T00391072
Loading
Personal Weather Stations






























Interactive Weather Map New forecast layout! Learn more

10-Day Weather Forecast

Advertisements
Track Severe Weather on mobile